createdAt,value
2022-09-11T00:01:07.508Z,14.70
2022-09-11T00:03:35.089Z,14.70
2022-09-11T00:06:08.199Z,14.70
2022-09-11T00:08:35.218Z,14.70
2022-09-11T00:11:08.411Z,14.80
2022-09-11T00:13:37.031Z,14.80
2022-09-11T00:16:06.416Z,14.90
2022-09-11T00:18:37.265Z,14.90
2022-09-11T00:21:07.902Z,14.90
2022-09-11T00:23:35.309Z,14.90
2022-09-11T00:26:03.516Z,14.90
2022-09-11T00:28:30.572Z,14.90
2022-09-11T00:31:00.253Z,14.80
2022-09-11T00:33:27.982Z,14.80
2022-09-11T00:35:58.414Z,14.70
2022-09-11T00:38:29.571Z,14.60
2022-09-11T00:40:58.349Z,14.60
2022-09-11T00:43:26.534Z,14.60
2022-09-11T00:45:57.705Z,14.60
2022-09-11T00:48:27.505Z,14.50
2022-09-11T00:50:56.291Z,14.50
2022-09-11T00:53:25.251Z,14.50
2022-09-11T00:55:57.530Z,14.50
2022-09-11T00:58:27.876Z,14.50
2022-09-11T01:00:56.689Z,14.50
2022-09-11T01:03:26.023Z,14.40
2022-09-11T01:05:54.628Z,14.40
2022-09-11T01:08:22.794Z,14.40
2022-09-11T01:11:19.709Z,14.40
2022-09-11T01:13:52.191Z,14.20
2022-09-11T01:16:53.150Z,14.20
2022-09-11T01:19:46.454Z,14.20
2022-09-11T01:22:21.048Z,14.10
2022-09-11T01:24:54.109Z,14.00
2022-09-11T01:27:47.167Z,14.00
2022-09-11T01:30:16.289Z,13.90
2022-09-11T01:33:13.433Z,13.80
2022-09-11T01:35:53.716Z,13.90
2022-09-11T01:38:34.074Z,13.90
2022-09-11T01:41:16.378Z,14.00
2022-09-11T01:43:51.477Z,13.90
2022-09-11T01:46:22.852Z,13.90
2022-09-11T01:49:15.417Z,13.90
2022-09-11T01:51:42.144Z,14.00
2022-09-11T01:54:16.988Z,14.10
2022-09-11T01:56:51.978Z,14.20
2022-09-11T01:59:27.850Z,14.40
2022-09-11T02:02:07.690Z,14.30
2022-09-11T02:04:41.140Z,14.40
2022-09-11T02:07:16.976Z,14.50
2022-09-11T02:09:51.174Z,14.50
2022-09-11T02:12:21.347Z,14.50
2022-09-11T02:14:50.394Z,14.60
2022-09-11T02:17:40.827Z,14.60
2022-09-11T02:20:09.253Z,14.70
2022-09-11T02:22:36.346Z,14.70
2022-09-11T02:25:04.238Z,14.70
2022-09-11T02:27:31.922Z,14.80
2022-09-11T02:30:00.950Z,14.70
2022-09-11T02:32:32.649Z,14.80
2022-09-11T02:35:00.031Z,14.80
2022-09-11T02:37:31.275Z,14.80
2022-09-11T02:40:06.972Z,14.80
2022-09-11T02:43:06.836Z,14.80
2022-09-11T02:45:58.593Z,14.90
2022-09-11T02:48:52.494Z,14.90
2022-09-11T02:51:28.946Z,15.00
2022-09-11T02:54:15.996Z,14.90
2022-09-11T02:57:04.036Z,14.90
2022-09-11T02:59:37.403Z,15.00
2022-09-11T03:02:10.358Z,15.00
2022-09-11T03:04:37.652Z,15.10
2022-09-11T03:07:04.494Z,15.10
2022-09-11T03:09:31.337Z,15.10
2022-09-11T03:12:05.378Z,15.10
2022-09-11T03:14:35.843Z,15.10
2022-09-11T03:17:04.798Z,15.10
2022-09-11T03:19:31.704Z,15.10
2022-09-11T03:21:58.413Z,15.10
2022-09-11T03:24:26.338Z,15.00
2022-09-11T03:26:53.085Z,15.10
2022-09-11T03:29:19.778Z,15.00
2022-09-11T03:31:47.295Z,15.10
2022-09-11T03:34:14.479Z,15.10
2022-09-11T03:36:41.224Z,15.20
2022-09-11T03:39:07.854Z,15.10
2022-09-11T03:41:35.993Z,15.10
2022-09-11T03:44:04.886Z,15.00
2022-09-11T03:46:32.977Z,15.10
2022-09-11T03:48:59.775Z,15.10
2022-09-11T03:51:26.695Z,15.10
2022-09-11T03:53:54.346Z,15.10
2022-09-11T03:56:21.096Z,15.00
2022-09-11T03:58:48.527Z,15.00
2022-09-11T04:01:18.968Z,15.00
2022-09-11T04:03:46.198Z,15.00
2022-09-11T04:06:21.463Z,15.00
2022-09-11T04:08:49.297Z,15.10
2022-09-11T04:11:16.492Z,15.10
2022-09-11T04:13:44.365Z,15.10
2022-09-11T04:16:17.442Z,15.10
2022-09-11T04:18:47.363Z,15.10
2022-09-11T04:21:17.075Z,15.10
2022-09-11T04:23:45.702Z,15.10
2022-09-11T04:26:15.693Z,15.10
2022-09-11T04:28:43.862Z,15.10
2022-09-11T04:31:14.644Z,15.10
2022-09-11T04:33:41.936Z,15.20
2022-09-11T04:36:11.243Z,15.20
2022-09-11T04:38:40.651Z,15.20
2022-09-11T04:41:11.524Z,15.30
2022-09-11T04:43:39.589Z,15.20
2022-09-11T04:46:15.316Z,15.20
2022-09-11T04:49:03.610Z,15.30
2022-09-11T04:51:34.726Z,15.20
2022-09-11T04:54:02.692Z,15.20
2022-09-11T04:56:37.743Z,15.10
2022-09-11T04:59:09.645Z,15.10
2022-09-11T05:01:37.889Z,15.00
2022-09-11T05:04:05.023Z,15.00
2022-09-11T05:06:32.350Z,14.90
2022-09-11T05:09:07.273Z,15.00
2022-09-11T05:11:36.293Z,14.90
2022-09-11T05:14:03.094Z,15.00
2022-09-11T05:16:34.611Z,14.90
2022-09-11T05:19:03.841Z,14.90
2022-09-11T05:21:33.254Z,14.90
2022-09-11T05:24:01.664Z,14.80
2022-09-11T05:26:33.151Z,14.90
2022-09-11T05:29:13.699Z,14.80
2022-09-11T05:31:46.012Z,14.80
2022-09-11T05:34:15.506Z,14.70
2022-09-11T05:36:42.231Z,14.60
2022-09-11T05:39:10.464Z,14.60
2022-09-11T05:41:37.959Z,14.40
2022-09-11T05:44:04.681Z,14.40
2022-09-11T05:46:33.331Z,14.40
2022-09-11T05:49:02.646Z,14.40
2022-09-11T05:51:29.626Z,14.40
2022-09-11T05:53:58.587Z,14.40
2022-09-11T05:56:28.085Z,14.50
2022-09-11T05:58:58.658Z,14.50
2022-09-11T06:01:34.010Z,14.50
2022-09-11T06:04:12.677Z,14.40
2022-09-11T06:06:42.006Z,14.40
2022-09-11T06:09:08.720Z,14.30
2022-09-11T06:11:35.722Z,14.40
2022-09-11T06:14:03.412Z,14.40
2022-09-11T06:16:31.689Z,14.40
2022-09-11T06:19:07.603Z,14.40
2022-09-11T06:21:34.716Z,14.50
2022-09-11T06:24:10.749Z,14.50
2022-09-11T06:26:37.583Z,14.50
2022-09-11T06:29:04.228Z,14.60
2022-09-11T06:31:35.210Z,14.70
2022-09-11T06:34:01.848Z,14.70
2022-09-11T06:36:32.521Z,14.70
2022-09-11T06:39:02.949Z,14.70
2022-09-11T06:41:31.856Z,14.70
2022-09-11T06:44:04.972Z,14.70
2022-09-11T06:46:31.817Z,14.80
2022-09-11T06:49:00.437Z,14.80
2022-09-11T06:51:28.422Z,14.80
2022-09-11T06:53:58.332Z,14.80
2022-09-11T06:56:30.383Z,14.80
2022-09-11T06:58:57.081Z,14.80
2022-09-11T07:01:25.598Z,14.80
2022-09-11T07:03:59.591Z,14.90
2022-09-11T07:06:28.720Z,14.90
2022-09-11T07:09:02.546Z,14.90
2022-09-11T07:11:43.634Z,14.90
2022-09-11T07:14:10.705Z,14.90
2022-09-11T07:16:40.435Z,14.80
2022-09-11T07:19:10.643Z,14.80
2022-09-11T07:21:38.893Z,14.80
2022-09-11T07:24:07.015Z,14.80
2022-09-11T07:26:37.759Z,14.80
2022-09-11T07:29:12.652Z,14.80
2022-09-11T07:31:39.388Z,14.90
2022-09-11T07:34:06.768Z,14.90
2022-09-11T07:36:35.592Z,14.90
2022-09-11T07:39:06.130Z,15.00
2022-09-11T07:41:43.464Z,15.00
2022-09-11T07:44:16.280Z,15.00
2022-09-11T07:46:42.927Z,15.00
2022-09-11T07:49:11.756Z,15.00
2022-09-11T07:51:41.640Z,15.00
2022-09-11T07:54:10.548Z,15.00
2022-09-11T07:56:38.958Z,15.00
2022-09-11T07:59:08.706Z,15.10
2022-09-11T08:01:38.210Z,15.10
2022-09-11T08:04:11.844Z,15.00
2022-09-11T08:06:40.398Z,15.00
2022-09-11T08:09:15.706Z,15.10
2022-09-11T08:11:48.968Z,15.10
2022-09-11T08:14:17.907Z,15.10
2022-09-11T08:16:48.250Z,15.10
2022-09-11T08:19:18.512Z,15.20
2022-09-11T08:21:49.187Z,15.20
2022-09-11T08:24:18.347Z,15.30
2022-09-11T08:26:48.740Z,15.40
2022-09-11T08:29:18.190Z,15.40
2022-09-11T08:31:45.374Z,15.40
2022-09-11T08:34:13.052Z,15.40
2022-09-11T08:36:39.846Z,15.50
2022-09-11T08:39:08.989Z,15.60
2022-09-11T08:41:48.787Z,15.60
2022-09-11T08:44:27.362Z,15.70
2022-09-11T08:47:07.357Z,15.70
2022-09-11T08:49:43.255Z,15.70
2022-09-11T08:52:13.768Z,15.70
2022-09-11T08:54:42.470Z,15.50
2022-09-11T08:57:40.749Z,15.60
2022-09-11T09:00:19.706Z,15.60
2022-09-11T09:03:16.755Z,15.60
2022-09-11T09:05:58.993Z,15.70
2022-09-11T09:08:53.390Z,15.70
2022-09-11T09:11:53.332Z,15.80
2022-09-11T09:14:31.266Z,15.90
2022-09-11T09:17:01.467Z,16.30
2022-09-11T09:19:49.762Z,16.30
2022-09-11T09:22:23.190Z,16.40
2022-09-11T09:24:53.587Z,16.50
2022-09-11T09:27:33.979Z,16.50
2022-09-11T09:30:06.920Z,16.50
2022-09-11T09:32:42.198Z,16.50
2022-09-11T09:35:45.002Z,16.70
2022-09-11T09:38:21.821Z,16.60
2022-09-11T09:40:59.557Z,16.60
2022-09-11T09:44:01.159Z,16.70
2022-09-11T09:46:41.999Z,16.90
2022-09-11T09:49:16.392Z,16.80
2022-09-11T09:51:43.332Z,17.00
2022-09-11T09:54:16.491Z,16.90
2022-09-11T09:56:49.413Z,17.10
2022-09-11T09:59:22.428Z,17.30
2022-09-11T10:01:51.674Z,17.50
2022-09-11T10:04:27.123Z,17.60
2022-09-11T10:07:05.694Z,17.50
2022-09-11T10:09:33.131Z,17.50
2022-09-11T10:12:03.521Z,17.50
2022-09-11T10:14:52.073Z,17.50
2022-09-11T10:17:29.472Z,17.60
2022-09-11T10:20:13.243Z,17.50
2022-09-11T10:22:40.041Z,17.70
2022-09-11T10:25:14.166Z,17.80
2022-09-11T10:28:08.884Z,18.00
2022-09-11T10:30:39.171Z,18.10
2022-09-11T10:33:16.742Z,18.30
2022-09-11T10:35:55.060Z,18.30
2022-09-11T10:38:29.465Z,18.30
2022-09-11T10:41:09.882Z,17.90
2022-09-11T10:44:11.062Z,17.70
2022-09-11T10:46:42.271Z,17.60
2022-09-11T10:49:15.400Z,17.50
2022-09-11T10:51:56.886Z,17.30
2022-09-11T10:54:35.873Z,17.20
2022-09-11T10:57:22.466Z,17.00
2022-09-11T11:00:08.640Z,17.10
2022-09-11T11:02:39.860Z,17.30
2022-09-11T11:05:21.570Z,17.30
2022-09-11T11:08:03.229Z,17.50
2022-09-11T11:10:43.079Z,17.40
2022-09-11T11:13:39.111Z,17.50
2022-09-11T11:16:25.612Z,17.70
2022-09-11T11:19:12.469Z,17.90
2022-09-11T11:22:00.246Z,18.00
2022-09-11T11:24:41.504Z,18.30
2022-09-11T11:27:46.068Z,18.30
2022-09-11T11:30:29.988Z,18.30
2022-09-11T11:33:17.268Z,18.30
2022-09-11T11:36:07.000Z,18.20
2022-09-11T11:39:00.540Z,18.20
2022-09-11T11:41:35.392Z,18.40
2022-09-11T11:44:03.940Z,18.70
2022-09-11T11:46:38.768Z,18.70
2022-09-11T11:49:12.431Z,18.80
2022-09-11T11:51:48.257Z,19.10
2022-09-11T11:54:23.704Z,19.20
2022-09-11T11:56:56.330Z,19.10
2022-09-11T11:59:31.152Z,19.00
2022-09-11T12:02:09.637Z,18.60
2022-09-11T12:04:54.056Z,18.80
2022-09-11T12:07:32.509Z,19.00
2022-09-11T12:10:01.435Z,19.20
2022-09-11T12:12:34.516Z,18.70
2022-09-11T12:15:22.966Z,19.00
2022-09-11T12:18:06.918Z,19.50
2022-09-11T12:20:41.738Z,19.70
2022-09-11T12:23:31.014Z,20.10
2022-09-11T12:26:17.050Z,20.70
2022-09-11T12:28:44.229Z,21.00
2022-09-11T12:31:13.269Z,21.30
2022-09-11T12:33:48.765Z,21.60
2022-09-11T12:36:24.570Z,20.50
2022-09-11T12:38:59.963Z,20.90
2022-09-11T12:41:35.478Z,21.10
2022-09-11T12:44:04.701Z,21.30
2022-09-11T12:46:31.293Z,21.90
2022-09-11T12:49:21.574Z,22.20
2022-09-11T12:51:59.463Z,23.10
2022-09-11T12:54:37.786Z,23.20
2022-09-11T12:57:09.063Z,23.80
2022-09-11T12:59:42.520Z,24.00
2022-09-11T13:02:39.395Z,24.30
2022-09-11T13:05:17.470Z,22.70
2022-09-11T13:07:47.741Z,22.80
2022-09-11T13:10:33.960Z,22.70
2022-09-11T13:13:07.270Z,23.50
2022-09-11T13:15:40.936Z,24.50
2022-09-11T13:18:26.010Z,24.30
2022-09-11T13:21:03.347Z,24.50
2022-09-11T13:23:30.219Z,24.00
2022-09-11T13:25:58.746Z,24.00
2022-09-11T13:28:28.450Z,24.60
2022-09-11T13:31:00.374Z,24.50
2022-09-11T13:33:29.298Z,25.20
2022-09-11T13:36:02.471Z,23.00
2022-09-11T13:38:37.546Z,24.30
2022-09-11T13:41:13.329Z,23.60
2022-09-11T13:43:46.883Z,24.30
2022-09-11T13:46:16.719Z,25.40
2022-09-11T13:48:44.917Z,24.70
2022-09-11T13:51:14.188Z,24.10
2022-09-11T13:53:43.317Z,23.30
2022-09-11T13:56:51.366Z,22.50
2022-09-11T13:59:26.879Z,22.80
2022-09-11T14:02:00.780Z,23.10
2022-09-11T14:04:29.300Z,24.80
2022-09-11T14:06:56.249Z,25.50
2022-09-11T14:09:23.199Z,25.30
2022-09-11T14:11:50.458Z,24.20
2022-09-11T14:14:28.225Z,23.00
2022-09-11T14:17:01.067Z,23.20
2022-09-11T14:19:32.450Z,23.50
2022-09-11T14:21:59.766Z,23.70
2022-09-11T14:24:28.469Z,23.90
2022-09-11T14:26:58.651Z,24.30
2022-09-11T14:29:33.247Z,24.80
2022-09-11T14:32:27.711Z,24.70
2022-09-11T14:34:54.484Z,24.60
2022-09-11T14:37:22.339Z,24.10
2022-09-11T14:39:56.703Z,23.70
2022-09-11T14:42:28.800Z,24.10
2022-09-11T14:44:56.006Z,24.10
2022-09-11T14:47:24.707Z,24.20
2022-09-11T14:49:53.726Z,24.50
2022-09-11T14:52:22.883Z,24.00
2022-09-11T14:54:49.555Z,24.50
2022-09-11T14:57:20.969Z,25.60
2022-09-11T14:59:47.889Z,26.50
2022-09-11T15:02:17.259Z,26.50
2022-09-11T15:04:44.512Z,26.30
2022-09-11T15:07:12.474Z,27.20
2022-09-11T15:09:40.145Z,27.10
2022-09-11T15:12:08.420Z,26.00
2022-09-11T15:14:55.839Z,24.40
2022-09-11T15:17:25.041Z,23.20
2022-09-11T15:19:52.653Z,23.60
2022-09-11T15:22:19.469Z,24.30
2022-09-11T15:24:48.750Z,25.40
2022-09-11T15:27:15.491Z,25.90
2022-09-11T15:29:42.509Z,25.40
2022-09-11T15:32:10.232Z,25.30
2022-09-11T15:34:38.702Z,24.70
2022-09-11T15:37:05.866Z,24.30
2022-09-11T15:39:33.863Z,23.70
2022-09-11T15:42:01.701Z,24.10
2022-09-11T15:44:28.888Z,24.00
2022-09-11T15:46:57.774Z,24.40
2022-09-11T15:49:25.407Z,24.50
2022-09-11T15:51:54.018Z,24.50
2022-09-11T15:54:23.189Z,24.40
2022-09-11T15:56:50.550Z,23.60
2022-09-11T15:59:17.246Z,23.70
2022-09-11T16:01:44.837Z,24.70
2022-09-11T16:04:19.237Z,25.20
2022-09-11T16:06:48.305Z,25.40
2022-09-11T16:09:20.007Z,25.20
2022-09-11T16:11:47.922Z,24.70
2022-09-11T16:14:25.837Z,24.30
2022-09-11T16:16:53.387Z,24.60
2022-09-11T16:19:22.080Z,24.80
2022-09-11T16:21:50.026Z,24.50
2022-09-11T16:24:17.093Z,24.00
2022-09-11T16:26:44.576Z,23.30
2022-09-11T16:29:14.635Z,22.80
2022-09-11T16:31:42.522Z,22.30
2022-09-11T16:34:10.155Z,22.00
2022-09-11T16:36:40.108Z,21.80
2022-09-11T16:39:08.914Z,21.60
2022-09-11T16:41:37.038Z,21.50
2022-09-11T16:44:05.248Z,21.40
2022-09-11T16:46:33.461Z,21.40
2022-09-11T16:49:02.201Z,21.30
2022-09-11T16:51:29.557Z,21.20
2022-09-11T16:53:56.345Z,21.10
2022-09-11T16:56:24.514Z,21.10
2022-09-11T16:58:51.595Z,21.00
2022-09-11T17:01:23.745Z,20.90
2022-09-11T17:03:53.012Z,20.80
2022-09-11T17:06:20.853Z,20.70
2022-09-11T17:08:50.594Z,20.50
2022-09-11T17:11:19.619Z,20.20
2022-09-11T17:13:46.687Z,20.00
2022-09-11T17:16:32.928Z,20.00
2022-09-11T17:19:00.383Z,19.80
2022-09-11T17:21:27.874Z,19.70
2022-09-11T17:23:55.913Z,19.50
2022-09-11T17:26:23.542Z,19.40
2022-09-11T17:28:51.749Z,19.30
2022-09-11T17:31:19.528Z,19.20
2022-09-11T17:33:47.815Z,18.80
2022-09-11T17:36:17.345Z,18.90
2022-09-11T17:38:46.357Z,18.80
2022-09-11T17:41:13.295Z,18.70
2022-09-11T17:43:40.675Z,18.50
2022-09-11T17:46:14.866Z,18.50
2022-09-11T17:48:42.975Z,18.30
2022-09-11T17:51:11.387Z,18.30
2022-09-11T17:53:41.394Z,18.30
2022-09-11T17:56:10.832Z,18.10
2022-09-11T17:58:38.064Z,18.00
2022-09-11T18:01:06.069Z,18.00
2022-09-11T18:03:34.324Z,17.90
2022-09-11T18:06:03.405Z,17.90
2022-09-11T18:08:32.814Z,17.80
2022-09-11T18:11:00.873Z,17.80
2022-09-11T18:13:34.542Z,17.70
2022-09-11T18:16:03.300Z,17.70
2022-09-11T18:18:30.637Z,17.50
2022-09-11T18:21:05.019Z,17.20
2022-09-11T18:23:31.696Z,17.10
2022-09-11T18:26:00.180Z,17.00
2022-09-11T18:28:27.608Z,17.10
2022-09-11T18:31:01.151Z,17.00
2022-09-11T18:33:27.914Z,16.90
2022-09-11T18:35:54.523Z,16.90
2022-09-11T18:38:21.207Z,16.90
2022-09-11T18:40:56.109Z,16.80
2022-09-11T18:43:22.830Z,16.70
2022-09-11T18:45:49.469Z,16.70
2022-09-11T18:48:16.685Z,16.70
2022-09-11T18:50:43.619Z,16.70
2022-09-11T18:53:10.273Z,16.60
2022-09-11T18:55:37.599Z,16.30
2022-09-11T18:58:05.652Z,16.10
2022-09-11T19:00:32.640Z,16.10
2022-09-11T19:03:00.249Z,16.10
2022-09-11T19:05:28.673Z,16.10
2022-09-11T19:08:00.096Z,16.10
2022-09-11T19:10:27.091Z,16.00
2022-09-11T19:12:54.133Z,15.90
2022-09-11T19:15:20.839Z,15.80
2022-09-11T19:17:48.895Z,15.80
2022-09-11T19:20:16.210Z,15.70
2022-09-11T19:22:42.906Z,15.80
2022-09-11T19:25:09.979Z,15.70
2022-09-11T19:27:38.024Z,15.60
2022-09-11T19:30:06.337Z,15.70
2022-09-11T19:32:33.263Z,15.70
2022-09-11T19:35:00.466Z,15.50
2022-09-11T19:37:28.209Z,15.50
2022-09-11T19:39:57.046Z,15.40
2022-09-11T19:42:23.832Z,15.50
2022-09-11T19:44:55.643Z,15.50
2022-09-11T19:47:24.868Z,15.50
2022-09-11T19:49:51.587Z,15.40
2022-09-11T19:52:18.310Z,15.40
2022-09-11T19:54:44.977Z,15.30
2022-09-11T19:57:11.676Z,15.40
2022-09-11T19:59:44.777Z,15.40
2022-09-11T20:02:11.754Z,15.40
2022-09-11T20:04:38.456Z,15.40
2022-09-11T20:07:05.468Z,15.40
2022-09-11T20:09:32.958Z,15.40
2022-09-11T20:12:01.210Z,15.30
2022-09-11T20:14:29.446Z,15.40
2022-09-11T20:16:56.075Z,15.30
2022-09-11T20:19:22.722Z,15.20
2022-09-11T20:21:49.354Z,15.20
2022-09-11T20:24:16.070Z,15.20
2022-09-11T20:26:42.950Z,15.20
2022-09-11T20:29:13.925Z,15.20
2022-09-11T20:31:47.455Z,15.20
2022-09-11T20:34:18.754Z,15.20
2022-09-11T20:36:46.316Z,15.30
2022-09-11T20:39:14.034Z,15.20
2022-09-11T20:41:41.155Z,15.00
2022-09-11T20:44:07.865Z,15.00
2022-09-11T20:46:34.680Z,14.90
2022-09-11T20:49:04.680Z,14.90
2022-09-11T20:51:32.790Z,14.90
2022-09-11T20:54:00.466Z,14.90
2022-09-11T20:56:27.987Z,15.00
2022-09-11T20:58:54.787Z,14.80
2022-09-11T21:01:35.898Z,14.70
2022-09-11T21:04:06.660Z,14.70
2022-09-11T21:06:36.634Z,14.60
2022-09-11T21:09:07.764Z,14.60
2022-09-11T21:11:39.765Z,14.60
2022-09-11T21:14:06.578Z,14.60
2022-09-11T21:16:36.973Z,14.60
2022-09-11T21:19:10.759Z,14.60
2022-09-11T21:21:41.984Z,14.50
2022-09-11T21:24:21.866Z,14.50
2022-09-11T21:26:52.480Z,14.50
2022-09-11T21:29:25.092Z,14.50
2022-09-11T21:31:52.979Z,14.40
2022-09-11T21:34:19.589Z,14.40
2022-09-11T21:36:46.200Z,14.40
2022-09-11T21:39:12.948Z,14.30
2022-09-11T21:41:39.730Z,14.20
2022-09-11T21:44:06.442Z,14.20
2022-09-11T21:46:33.945Z,14.10
2022-09-11T21:49:01.632Z,14.10
2022-09-11T21:51:28.406Z,14.10
2022-09-11T21:54:01.658Z,14.20
2022-09-11T21:56:31.438Z,14.20
2022-09-11T21:58:58.891Z,14.00
2022-09-11T22:01:26.957Z,14.00
2022-09-11T22:03:54.356Z,13.90
2022-09-11T22:06:23.655Z,13.90
2022-09-11T22:08:51.032Z,13.90
2022-09-11T22:11:18.168Z,14.00
2022-09-11T22:13:45.257Z,14.10
2022-09-11T22:16:14.639Z,14.00
2022-09-11T22:18:42.460Z,14.00
2022-09-11T22:21:10.388Z,13.80
2022-09-11T22:23:37.154Z,13.80
2022-09-11T22:26:08.656Z,13.80
2022-09-11T22:28:36.680Z,13.90
2022-09-11T22:31:07.996Z,13.90
2022-09-11T22:33:37.891Z,13.90
2022-09-11T22:36:13.156Z,13.70
2022-09-11T22:38:40.232Z,13.70
2022-09-11T22:41:07.448Z,13.70
2022-09-11T22:43:34.240Z,13.70
2022-09-11T22:46:01.261Z,13.70
2022-09-11T22:48:28.061Z,13.80
2022-09-11T22:50:56.884Z,13.80
2022-09-11T22:53:28.092Z,13.90
2022-09-11T22:55:55.065Z,13.90
2022-09-11T22:58:22.294Z,13.90
2022-09-11T23:00:51.719Z,14.00
2022-09-11T23:03:18.411Z,14.00
2022-09-11T23:06:03.882Z,14.10
2022-09-11T23:08:38.430Z,14.00
2022-09-11T23:11:05.953Z,13.90
2022-09-11T23:13:33.869Z,13.90
2022-09-11T23:16:00.827Z,13.90
2022-09-11T23:18:28.006Z,13.90
2022-09-11T23:20:58.375Z,13.90
2022-09-11T23:23:25.568Z,13.70
2022-09-11T23:25:52.379Z,13.70
2022-09-11T23:28:19.095Z,13.60
2022-09-11T23:30:45.710Z,13.70
2022-09-11T23:33:12.374Z,13.60
2022-09-11T23:35:39.833Z,13.50
2022-09-11T23:38:07.289Z,13.50
2022-09-11T23:40:34.516Z,13.50
2022-09-11T23:43:02.042Z,13.50
2022-09-11T23:45:29.162Z,13.50
2022-09-11T23:47:55.960Z,13.40
2022-09-11T23:50:22.833Z,13.40
2022-09-11T23:52:49.460Z,13.50
2022-09-11T23:55:17.596Z,13.40
2022-09-11T23:57:44.215Z,13.40
